Time;durP1;ratioP1;P1;durP2;ratioP2;P2;SDS_P1;SDS_P2;PMS_P1;PMS_P2;Temp;Humidity;BMP_temperature;BMP_pressure;BME280_temperature;BME280_humidity;BME280_pressure;Samples;Min_cycle;Max_cycle;Signal;HPM_P1;HPM_P2
2023/05/29 00:00:08;;;;;;;4.13;2.30;;;20.50;91.30;;;;;;5112439;27;20205;-85
2023/05/29 00:02:38;;;;;;;3.65;1.95;;;20.50;91.40;;;;;;5102519;28;20193;-84
2023/05/29 00:05:07;;;;;;;3.65;2.05;;;20.50;91.40;;;;;;5107733;27;20185;-85
2023/05/29 00:07:36;;;;;;;3.75;2.15;;;20.50;91.50;;;;;;5108865;28;20193;-86
2023/05/29 00:10:06;;;;;;;5.97;2.28;;;20.50;91.50;;;;;;5114247;27;20270;-86
2023/05/29 00:12:35;;;;;;;3.25;1.90;;;20.50;91.50;;;;;;5113490;27;20217;-86
2023/05/29 00:15:04;;;;;;;3.88;2.15;;;20.50;91.50;;;;;;5103753;27;20280;-86
2023/05/29 00:17:33;;;;;;;3.13;1.65;;;20.50;91.50;;;;;;5117368;27;20725;-86
2023/05/29 00:20:08;;;;;;;3.22;1.90;;;20.50;91.50;;;;;;5103850;27;20227;-84
2023/05/29 00:22:37;;;;;;;5.22;1.50;;;20.50;91.50;;;;;;5105842;28;20225;-85
2023/05/29 00:25:07;;;;;;;3.35;2.00;;;20.50;91.50;;;;;;5119047;27;20220;-85
2023/05/29 00:27:36;;;;;;;3.25;1.77;;;20.50;91.50;;;;;;5121802;27;21058;-85
2023/05/29 00:30:06;;;;;;;4.90;1.95;;;20.50;91.50;;;;;;5103607;28;20570;-84
2023/05/29 00:32:35;;;;;;;4.05;2.15;;;20.40;91.50;;;;;;5110137;28;20212;-85
2023/05/29 00:35:06;;;;;;;5.00;1.90;;;20.50;91.50;;;;;;5112951;28;20634;-85
2023/05/29 00:37:34;;;;;;;3.63;1.85;;;20.50;91.60;;;;;;5110255;28;20185;-84
2023/05/29 00:40:03;;;;;;;2.97;1.77;;;20.40;91.60;;;;;;5103809;28;20224;-86
2023/05/29 00:42:32;;;;;;;2.72;1.50;;;20.40;91.60;;;;;;5098860;28;20193;-84
2023/05/29 00:45:02;;;;;;;5.10;1.60;;;20.40;91.60;;;;;;5103026;28;20575;-85
2023/05/29 00:47:31;;;;;;;5.18;2.03;;;20.40;91.60;;;;;;5104043;28;20205;-85
2023/05/29 00:50:00;;;;;;;3.80;2.08;;;20.40;91.60;;;;;;5117304;28;20193;-85
2023/05/29 00:52:30;;;;;;;3.40;1.77;;;20.40;91.60;;;;;;5113508;28;20213;-85
2023/05/29 00:55:01;;;;;;;5.35;2.08;;;20.40;91.50;;;;;;5117944;27;20189;-86
2023/05/29 00:57:29;;;;;;;3.22;1.65;;;20.30;91.60;;;;;;5113682;28;20198;-86
2023/05/29 00:59:59;;;;;;;4.30;1.70;;;20.30;91.60;;;;;;5106988;28;20197;-83
2023/05/29 01:02:30;;;;;;;6.15;1.98;;;20.30;91.60;;;;;;5122271;28;20193;-85
2023/05/29 01:04:59;;;;;;;5.40;2.42;;;20.30;91.60;;;;;;5118332;28;20194;-85
2023/05/29 01:07:29;;;;;;;4.43;1.88;;;20.30;91.70;;;;;;5108788;28;20705;-85
2023/05/29 01:09:57;;;;;;;3.58;2.05;;;20.30;91.70;;;;;;5103823;28;20237;-86
2023/05/29 01:12:38;;;;;;;2.92;1.83;;;20.30;91.80;;;;;;5101092;28;20222;-85
2023/05/29 01:15:19;;;;;;;3.97;2.13;;;20.20;91.70;;;;;;5109367;28;20195;-84
2023/05/29 01:18:23;;;;;;;3.85;2.30;;;20.20;91.70;;;;;;5120139;27;20272;-84
2023/05/29 01:21:02;;;;;;;4.45;2.03;;;20.20;91.70;;;;;;5107522;28;20196;-86
2023/05/29 01:23:56;;;;;;;2.65;2.00;;;20.20;91.70;;;;;;5116252;28;20216;-87
2023/05/29 01:26:59;;;;;;;4.63;1.95;;;20.20;91.70;;;;;;5111604;28;20654;-85
2023/05/29 01:29:31;;;;;;;3.70;2.22;;;20.20;91.70;;;;;;5118589;27;20211;-83
2023/05/29 01:32:01;;;;;;;5.07;1.67;;;20.20;91.70;;;;;;5110080;27;20209;-84
2023/05/29 01:34:30;;;;;;;3.63;1.97;;;20.10;91.70;;;;;;5127876;27;20193;-85
2023/05/29 01:36:59;;;;;;;3.63;2.20;;;20.10;91.70;;;;;;5105670;27;20697;-86
2023/05/29 01:39:28;;;;;;;13.88;2.05;;;20.10;91.70;;;;;;5122640;27;20231;-87
2023/05/29 01:42:00;;;;;;;2.88;1.80;;;20.10;91.70;;;;;;5125805;27;20195;-86
2023/05/29 01:44:30;;;;;;;3.60;1.90;;;20.10;91.70;;;;;;5112347;27;20196;-85
2023/05/29 01:46:59;;;;;;;2.90;1.65;;;20.10;91.70;;;;;;5116166;27;20192;-87
2023/05/29 01:49:29;;;;;;;4.57;2.43;;;20.00;91.70;;;;;;5104090;28;20558;-86
2023/05/29 01:51:57;;;;;;;4.17;2.40;;;20.00;91.70;;;;;;5107138;27;20194;-85
2023/05/29 01:54:26;;;;;;;3.95;2.28;;;20.00;91.80;;;;;;5118448;27;20653;-84
2023/05/29 01:56:55;;;;;;;2.53;1.83;;;20.00;91.80;;;;;;5120459;27;20200;-85
2023/05/29 01:59:26;;;;;;;4.87;2.33;;;19.90;91.80;;;;;;5111797;27;20210;-85
2023/05/29 02:01:55;;;;;;;3.93;2.07;;;19.90;91.70;;;;;;5108288;27;20197;-84
2023/05/29 02:04:24;;;;;;;3.07;1.83;;;19.90;91.80;;;;;;5111788;27;20202;-85
2023/05/29 02:06:53;;;;;;;3.10;2.03;;;19.90;91.80;;;;;;5111121;27;20555;-84
2023/05/29 02:09:23;;;;;;;3.40;2.03;;;19.90;91.80;;;;;;5116310;27;20197;-86
2023/05/29 02:11:51;;;;;;;4.80;2.60;;;19.90;91.90;;;;;;5112672;27;20250;-84
2023/05/29 02:14:20;;;;;;;4.73;2.27;;;19.90;91.90;;;;;;5105268;28;20217;-85
2023/05/29 02:16:51;;;;;;;2.93;1.63;;;19.80;91.90;;;;;;5101889;27;20194;-85
2023/05/29 02:19:20;;;;;;;2.63;1.93;;;19.80;91.90;;;;;;5115848;27;20197;-85
2023/05/29 02:21:49;;;;;;;3.83;2.03;;;19.80;91.90;;;;;;5108153;27;20180;-87
2023/05/29 02:24:18;;;;;;;4.03;2.23;;;19.80;91.90;;;;;;5109431;28;20283;-86
2023/05/29 02:26:50;;;;;;;3.20;2.00;;;19.80;91.90;;;;;;5106675;27;20197;-85
2023/05/29 02:29:18;;;;;;;4.27;2.30;;;19.80;91.90;;;;;;5110607;27;20196;-86
2023/05/29 02:31:47;;;;;;;3.40;1.85;;;19.80;91.90;;;;;;5103045;27;20665;-85
2023/05/29 02:34:17;;;;;;;3.30;1.70;;;19.80;91.90;;;;;;5116593;27;20220;-85
2023/05/29 02:36:45;;;;;;;3.53;1.80;;;19.80;91.80;;;;;;5112954;27;20193;-85
2023/05/29 02:39:14;;;;;;;3.80;2.40;;;19.70;91.80;;;;;;5103332;28;20282;-84
2023/05/29 02:41:43;;;;;;;4.60;2.00;;;19.70;91.90;;;;;;5103638;27;20657;-84
2023/05/29 02:44:11;;;;;;;4.07;2.40;;;19.70;91.90;;;;;;5109719;27;20197;-85
2023/05/29 02:46:40;;;;;;;3.97;2.23;;;19.70;91.80;;;;;;5112097;27;20192;-85
2023/05/29 02:49:09;;;;;;;3.77;1.60;;;19.70;91.80;;;;;;5116705;27;20662;-85
2023/05/29 02:51:40;;;;;;;4.53;2.47;;;19.70;91.80;;;;;;5119473;27;20241;-85
2023/05/29 02:54:08;;;;;;;11.63;2.23;;;19.70;91.80;;;;;;5120292;27;20250;-85
2023/05/29 02:56:37;;;;;;;4.70;2.27;;;19.70;91.80;;;;;;5112221;27;20193;-85
2023/05/29 02:59:06;;;;;;;1.98;1.40;;;19.70;91.80;;;;;;5114575;27;20196;-86
2023/05/29 03:01:35;;;;;;;4.13;1.93;;;19.70;91.80;;;;;;5121462;27;20280;-86
2023/05/29 03:04:04;;;;;;;3.83;1.93;;;19.70;91.80;;;;;;5116906;27;20197;-85
2023/05/29 03:06:33;;;;;;;4.90;2.23;;;19.70;91.90;;;;;;5107713;27;20211;-83
2023/05/29 03:09:04;;;;;;;3.77;2.17;;;19.70;91.90;;;;;;5108485;27;20664;-85
2023/05/29 03:11:35;;;;;;;6.27;2.53;;;19.60;91.80;;;;;;5115830;27;20193;-85
2023/05/29 03:14:04;;;;;;;2.87;2.10;;;19.60;91.80;;;;;;5117552;27;20213;-86
2023/05/29 03:16:33;;;;;;;3.47;1.97;;;19.60;91.90;;;;;;5109994;28;20674;-85
2023/05/29 03:19:02;;;;;;;5.03;1.97;;;19.60;92.00;;;;;;5111460;27;20222;-85
2023/05/29 03:21:32;;;;;;;5.63;2.17;;;19.60;92.00;;;;;;5113243;27;20197;-85
2023/05/29 03:24:03;;;;;;;7.57;1.90;;;19.60;92.00;;;;;;5111156;28;20228;-87
2023/05/29 03:26:32;;;;;;;6.53;3.27;;;19.60;92.00;;;;;;5107357;27;20202;-86
2023/05/29 03:29:00;;;;;;;1.70;1.13;;;19.60;92.10;;;;;;5113284;27;20228;-85
2023/05/29 03:31:29;;;;;;;5.07;2.37;;;19.60;92.10;;;;;;5113806;27;20656;-86
2023/05/29 03:33:59;;;;;;;3.50;1.87;;;19.60;92.20;;;;;;5099921;27;20347;-86
2023/05/29 03:36:28;;;;;;;4.37;2.17;;;19.60;92.10;;;;;;5104077;28;20208;-84
2023/05/29 03:39:00;;;;;;;4.13;2.30;;;19.60;92.20;;;;;;5111938;27;20190;-85
2023/05/29 03:41:31;;;;;;;3.40;1.50;;;19.60;92.20;;;;;;5105255;27;20290;-86
2023/05/29 03:44:00;;;;;;;4.50;2.23;;;19.60;92.20;;;;;;5117858;27;20653;-83
2023/05/29 03:46:30;;;;;;;3.30;1.70;;;19.60;92.20;;;;;;5110136;27;20189;-85
2023/05/29 03:48:59;;;;;;;4.67;2.03;;;19.60;92.20;;;;;;5109092;27;20233;-87
2023/05/29 03:51:29;;;;;;;3.60;1.60;;;19.70;92.40;;;;;;5106740;27;20194;-85
2023/05/29 03:53:58;;;;;;;3.47;1.60;;;19.70;92.50;;;;;;5106286;28;20217;-86
2023/05/29 03:56:26;;;;;;;3.53;1.70;;;19.70;92.40;;;;;;5110428;27;20199;-85
2023/05/29 03:58:57;;;;;;;3.53;1.73;;;19.70;92.40;;;;;;5107996;27;20194;-85
2023/05/29 04:01:26;;;;;;;2.33;1.17;;;19.70;92.50;;;;;;5112249;27;20559;-86
2023/05/29 04:03:54;;;;;;;3.57;1.40;;;19.70;92.50;;;;;;5106275;27;20198;-88
2023/05/29 04:06:23;;;;;;;3.00;1.70;;;19.70;92.50;;;;;;5102923;28;20193;-87
2023/05/29 04:08:52;;;;;;;4.17;2.30;;;19.80;92.60;;;;;;5109163;27;20202;-86
2023/05/29 04:11:22;;;;;;;3.90;2.17;;;19.80;92.90;;;;;;5110949;27;20616;-86
2023/05/29 04:13:50;;;;;;;3.30;2.00;;;19.80;92.90;;;;;;5110061;27;20219;-85
2023/05/29 04:16:21;;;;;;;6.93;1.70;;;19.90;92.90;;;;;;5106587;28;20601;-83
2023/05/29 04:18:51;;;;;;;2.90;1.80;;;19.90;93.00;;;;;;5123268;27;20188;-84
2023/05/29 04:21:19;;;;;;;3.37;2.00;;;19.90;93.10;;;;;;5101334;28;20642;-84
2023/05/29 04:23:48;;;;;;;4.93;1.90;;;19.90;93.10;;;;;;5110543;27;20252;-83
2023/05/29 04:26:17;;;;;;;5.13;2.03;;;19.90;93.20;;;;;;5106043;27;20200;-84
2023/05/29 04:28:45;;;;;;;4.50;2.47;;;20.00;93.20;;;;;;5108921;27;20568;-84
2023/05/29 04:31:15;;;;;;;4.00;2.10;;;20.00;93.30;;;;;;5120781;27;20212;-86
2023/05/29 04:33:46;;;;;;;4.70;2.47;;;20.00;93.30;;;;;;5109649;28;20223;-85
2023/05/29 04:36:14;;;;;;;4.60;2.20;;;20.00;93.80;;;;;;5105532;28;20206;-85
2023/05/29 04:38:44;;;;;;;2.78;1.60;;;20.10;93.50;;;;;;5122760;28;20273;-84
2023/05/29 04:41:13;;;;;;;3.88;2.05;;;20.10;93.60;;;;;;5113192;28;20189;-84
2023/05/29 04:43:41;;;;;;;3.10;1.33;;;20.10;93.70;;;;;;5114709;28;20188;-85
2023/05/29 04:46:12;;;;;;;3.50;2.00;;;20.20;93.80;;;;;;5119688;27;20197;-85
2023/05/29 04:48:43;;;;;;;4.20;2.03;;;20.20;93.60;;;;;;5105606;28;20824;-85
2023/05/29 04:51:13;;;;;;;3.22;1.98;;;20.20;93.50;;;;;;5107374;28;20273;-83
2023/05/29 04:53:43;;;;;;;3.60;2.17;;;20.20;93.10;;;;;;5107344;28;20642;-84
2023/05/29 04:56:11;;;;;;;4.78;2.38;;;20.30;93.10;;;;;;5112370;28;20224;-84
2023/05/29 04:58:40;;;;;;;3.58;1.88;;;20.20;92.80;;;;;;5109583;28;20196;-83
2023/05/29 05:01:14;;;;;;;2.63;1.45;;;20.20;92.50;;;;;;5103768;28;20193;-85
2023/05/29 05:03:42;;;;;;;2.63;1.40;;;20.20;92.50;;;;;;5118494;27;20275;-85
2023/05/29 05:06:16;;;;;;;2.28;1.90;;;20.20;92.30;;;;;;5119766;27;20249;-86
2023/05/29 05:08:45;;;;;;;3.60;1.90;;;20.30;92.20;;;;;;5113660;27;20284;-86
2023/05/29 05:11:15;;;;;;;4.07;1.70;;;20.30;92.20;;;;;;5122542;27;20196;-84
2023/05/29 05:13:44;;;;;;;2.25;1.42;;;20.40;92.20;;;;;;5104510;28;20670;-84
2023/05/29 05:16:13;;;;;;;5.18;2.42;;;20.40;91.80;;;;;;5113890;27;20227;-86
2023/05/29 05:18:41;;;;;;;2.97;1.50;;;20.40;91.40;;;;;;5114696;27;20216;-86
2023/05/29 05:21:10;;;;;;;3.55;1.48;;;20.40;91.50;;;;;;5129929;27;20196;-86
2023/05/29 05:23:41;;;;;;;2.67;1.30;;;20.50;91.50;;;;;;5116196;27;20212;-86
2023/05/29 05:26:26;;;;;;;3.97;1.63;;;20.60;91.50;;;;;;5114025;27;20279;-86
2023/05/29 05:28:58;;;;;;;3.78;2.15;;;20.60;91.30;;;;;;5121101;27;20200;-84
2023/05/29 05:31:28;;;;;;;2.30;1.50;;;20.70;91.20;;;;;;5112085;27;20193;-86
2023/05/29 05:33:57;;;;;;;6.40;1.55;;;20.80;91.10;;;;;;5123132;27;20210;-83
2023/05/29 05:36:29;;;;;;;1.80;1.23;;;20.90;91.20;;;;;;5118061;27;20218;-85
2023/05/29 05:38:59;;;;;;;1.67;1.10;;;21.00;91.20;;;;;;5121979;27;20189;-86
2023/05/29 05:41:29;;;;;;;4.18;1.70;;;21.10;91.00;;;;;;5117171;27;20905;-87
2023/05/29 05:43:58;;;;;;;2.45;1.45;;;21.20;90.50;;;;;;5117016;27;20241;-85
2023/05/29 05:46:27;;;;;;;2.67;1.55;;;21.30;89.70;;;;;;5120740;27;20194;-86
2023/05/29 05:48:57;;;;;;;6.03;1.48;;;21.40;89.10;;;;;;5115706;27;20185;-86
2023/05/29 05:51:25;;;;;;;4.15;1.13;;;21.50;86.10;;;;;;5120901;27;20192;-84
2023/05/29 05:53:54;;;;;;;2.90;1.30;;;21.60;86.30;;;;;;5099390;27;20211;-84
2023/05/29 05:56:24;;;;;;;1.85;1.17;;;21.80;87.30;;;;;;5104012;27;20682;-85
2023/05/29 05:58:53;;;;;;;6.65;2.33;;;21.90;84.90;;;;;;5111521;27;20271;-85
2023/05/29 06:01:22;;;;;;;3.50;1.42;;;22.00;84.50;;;;;;5107560;27;20197;-85
2023/05/29 06:03:50;;;;;;;3.22;1.70;;;22.10;83.70;;;;;;5116419;27;20189;-86
2023/05/29 06:06:19;;;;;;;3.50;1.48;;;22.10;82.80;;;;;;5107970;27;20233;-86
2023/05/29 06:08:48;;;;;;;3.75;1.77;;;22.20;81.80;;;;;;5116227;27;20200;-86
2023/05/29 06:11:18;;;;;;;1.67;1.00;;;22.20;81.80;;;;;;5109492;27;20189;-87
2023/05/29 06:13:48;;;;;;;2.47;1.50;;;22.30;81.90;;;;;;5117077;27;20678;-85
2023/05/29 06:16:16;;;;;;;2.13;1.48;;;22.20;81.50;;;;;;5101202;28;20271;-85
2023/05/29 06:18:45;;;;;;;5.90;1.75;;;22.30;81.60;;;;;;5126320;27;20241;-85
2023/05/29 06:21:15;;;;;;;2.47;1.65;;;22.30;81.40;;;;;;5111982;27;20665;-83
2023/05/29 06:23:43;;;;;;;2.78;1.45;;;22.40;81.80;;;;;;5113170;27;20705;-82
2023/05/29 06:26:13;;;;;;;2.20;1.02;;;22.40;81.70;;;;;;5105289;27;20564;-82
2023/05/29 06:28:41;;;;;;;3.33;1.40;;;22.50;81.90;;;;;;5110217;27;20193;-82
2023/05/29 06:31:12;;;;;;;4.05;1.50;;;22.50;81.60;;;;;;5112248;27;20196;-84
2023/05/29 06:33:41;;;;;;;1.85;1.10;;;22.50;80.00;;;;;;5113160;27;20275;-84
2023/05/29 06:36:10;;;;;;;1.88;1.05;;;22.60;79.80;;;;;;5106638;27;20320;-83
2023/05/29 06:38:39;;;;;;;1.90;1.30;;;22.60;80.20;;;;;;5112787;27;20216;-85
2023/05/29 06:41:09;;;;;;;7.40;1.48;;;22.70;79.80;;;;;;5106417;27;20544;-81
2023/05/29 06:43:37;;;;;;;3.60;1.80;;;22.80;80.40;;;;;;5117991;27;20344;-84
2023/05/29 06:46:06;;;;;;;2.55;1.38;;;22.90;80.40;;;;;;5116242;27;20194;-85
2023/05/29 06:48:36;;;;;;;5.15;1.55;;;22.90;78.20;;;;;;5115328;27;20188;-83
2023/05/29 06:51:08;;;;;;;9.80;1.73;;;23.00;78.60;;;;;;5117742;27;20596;-85
2023/05/29 06:53:37;;;;;;;2.83;1.88;;;23.10;77.90;;;;;;5111011;27;20192;-82
2023/05/29 06:56:06;;;;;;;3.28;1.33;;;23.20;77.70;;;;;;5113437;27;20225;-82
2023/05/29 06:58:35;;;;;;;4.45;1.55;;;23.30;78.30;;;;;;5113957;27;20268;-85
2023/05/29 07:01:04;;;;;;;2.15;1.23;;;23.30;78.00;;;;;;5121382;27;20313;-88
2023/05/29 07:03:37;;;;;;;2.78;1.30;;;23.40;75.50;;;;;;5106851;27;20201;-83
2023/05/29 07:06:07;;;;;;;2.20;1.30;;;23.40;76.20;;;;;;5109792;27;20791;-84
2023/05/29 07:08:36;;;;;;;2.03;1.05;;;23.50;76.80;;;;;;5105331;27;20194;-84
2023/05/29 07:11:04;;;;;;;5.32;1.23;;;23.60;76.70;;;;;;5103970;27;20272;-85
2023/05/29 07:13:33;;;;;;;1.45;1.05;;;23.60;74.70;;;;;;5102858;27;20252;-83
2023/05/29 07:16:02;;;;;;;1.92;1.15;;;23.70;76.50;;;;;;5099607;27;20217;-84
2023/05/29 07:18:46;;;;;;;2.63;1.33;;;23.80;76.20;;;;;;5101413;27;20213;-83
2023/05/29 07:21:14;;;;;;;2.05;1.30;;;23.80;76.20;;;;;;5104131;27;20181;-84
2023/05/29 07:23:43;;;;;;;1.83;0.90;;;23.90;76.30;;;;;;5117151;27;20221;-83
2023/05/29 07:26:18;;;;;;;6.18;1.20;;;24.00;76.50;;;;;;5106177;28;20821;-83
2023/05/29 07:28:46;;;;;;;2.55;1.40;;;24.10;76.10;;;;;;5122750;27;20264;-84
2023/05/29 07:31:15;;;;;;;2.05;1.20;;;24.20;76.30;;;;;;5113676;27;20198;-87
2023/05/29 07:33:45;;;;;;;2.25;1.33;;;24.20;76.10;;;;;;5123060;27;20200;-85
2023/05/29 07:36:16;;;;;;;2.40;1.10;;;24.30;76.20;;;;;;5109915;27;20201;-85
2023/05/29 07:38:44;;;;;;;1.50;1.23;;;24.30;74.10;;;;;;5119980;27;20192;-83
2023/05/29 07:41:16;;;;;;;6.90;2.33;;;24.40;74.20;;;;;;5122943;27;20196;-85
2023/05/29 07:43:50;;;;;;;2.72;1.40;;;24.40;74.10;;;;;;5117180;27;20255;-85
2023/05/29 07:46:19;;;;;;;2.60;1.50;;;24.40;73.20;;;;;;5100376;28;20288;-85
2023/05/29 07:48:49;;;;;;;4.40;1.55;;;24.40;72.30;;;;;;5112216;27;20197;-84
2023/05/29 07:51:18;;;;;;;4.30;1.30;;;24.50;72.50;;;;;;5126672;27;20275;-85
2023/05/29 07:53:49;;;;;;;3.00;1.20;;;24.50;72.50;;;;;;5124449;27;20565;-85
2023/05/29 07:56:17;;;;;;;3.25;1.38;;;24.50;72.30;;;;;;5121056;27;20204;-84
2023/05/29 07:58:46;;;;;;;3.60;1.38;;;24.60;71.80;;;;;;5117825;27;20192;-86
2023/05/29 08:01:15;;;;;;;4.40;1.50;;;24.60;72.00;;;;;;5111877;27;20189;-82
2023/05/29 08:03:44;;;;;;;1.77;1.08;;;24.60;71.70;;;;;;5123586;27;20185;-85
2023/05/29 08:06:15;;;;;;;2.10;1.10;;;24.60;71.70;;;;;;5113058;27;20594;-85
2023/05/29 08:08:43;;;;;;;4.00;1.70;;;24.70;71.40;;;;;;5108277;27;20177;-87
2023/05/29 08:11:12;;;;;;;3.20;1.17;;;24.80;71.60;;;;;;5122538;27;20193;-85
2023/05/29 08:13:42;;;;;;;2.35;1.38;;;24.80;70.40;;;;;;5124802;27;20208;-86
2023/05/29 08:16:10;;;;;;;1.83;1.15;;;24.90;71.60;;;;;;5122828;27;20223;-86
2023/05/29 08:18:39;;;;;;;1.38;1.10;;;25.00;71.90;;;;;;5119605;27;20193;-86
2023/05/29 08:21:09;;;;;;;1.80;0.90;;;25.00;71.20;;;;;;5110812;27;20190;-84
2023/05/29 08:23:39;;;;;;;10.90;1.67;;;25.00;71.20;;;;;;5114858;27;20312;-84
2023/05/29 08:26:08;;;;;;;4.10;1.58;;;25.00;70.00;;;;;;5109138;27;20218;-84
2023/05/29 08:28:36;;;;;;;2.88;1.60;;;25.00;70.50;;;;;;5116256;27;20732;-85
2023/05/29 08:31:07;;;;;;;9.23;1.65;;;25.00;69.50;;;;;;5109886;27;20641;-85
2023/05/29 08:33:38;;;;;;;2.30;1.50;;;25.00;70.40;;;;;;5119722;27;20650;-85
2023/05/29 08:36:06;;;;;;;1.67;0.95;;;24.90;69.90;;;;;;5116103;28;20192;-85
2023/05/29 08:38:35;;;;;;;3.30;1.40;;;25.00;70.90;;;;;;5115892;28;20194;-86
2023/05/29 08:41:09;;;;;;;2.20;1.27;;;25.00;70.70;;;;;;5114852;28;20232;-85
2023/05/29 08:43:41;;;;;;;1.77;1.30;;;25.00;69.70;;;;;;5112576;28;20222;-86
2023/05/29 08:46:10;;;;;;;4.03;1.80;;;24.90;68.80;;;;;;5119575;27;20207;-86
2023/05/29 08:48:44;;;;;;;3.60;2.22;;;24.90;68.80;;;;;;5124667;28;20193;-86
2023/05/29 08:51:14;;;;;;;4.18;1.75;;;24.90;69.20;;;;;;5127754;27;20188;-84
2023/05/29 08:53:43;;;;;;;3.65;1.20;;;24.90;69.80;;;;;;5112756;27;20250;-85
2023/05/29 08:56:13;;;;;;;2.75;1.58;;;25.00;70.50;;;;;;5102305;28;20198;-86
2023/05/29 08:58:55;;;;;;;5.70;1.95;;;25.10;71.00;;;;;;5112690;28;20561;-83
2023/05/29 09:01:26;;;;;;;3.15;1.52;;;25.10;70.70;;;;;;5112829;27;20552;-84
2023/05/29 09:03:55;;;;;;;3.72;1.85;;;25.10;70.80;;;;;;5102284;28;20197;-83
2023/05/29 09:06:25;;;;;;;2.67;1.60;;;25.30;71.30;;;;;;5103421;27;20193;-85
2023/05/29 09:08:57;;;;;;;1.98;1.40;;;25.40;71.30;;;;;;5112770;28;20189;-84
2023/05/29 09:11:31;;;;;;;1.95;0.93;;;25.40;70.00;;;;;;5112443;28;20193;-85
2023/05/29 09:14:02;;;;;;;5.00;2.08;;;25.50;69.90;;;;;;5110779;28;20189;-84
2023/05/29 09:16:31;;;;;;;5.40;1.83;;;25.60;69.80;;;;;;5100283;28;20233;-85
2023/05/29 09:19:07;;;;;;;2.53;1.20;;;25.60;68.90;;;;;;5123866;28;20188;-86
2023/05/29 09:21:38;;;;;;;3.35;1.75;;;25.60;68.50;;;;;;5118262;28;20213;-85
2023/05/29 09:24:07;;;;;;;3.17;1.35;;;25.70;69.40;;;;;;5119902;27;20671;-86
2023/05/29 09:26:37;;;;;;;1.60;1.23;;;25.70;68.40;;;;;;5108191;28;20211;-85
2023/05/29 09:29:06;;;;;;;1.83;1.00;;;25.80;69.30;;;;;;5117426;27;20196;-86
2023/05/29 09:31:46;;;;;;;2.50;1.40;;;25.80;69.10;;;;;;5122328;28;20197;-85
2023/05/29 09:34:15;;;;;;;3.10;1.15;;;25.80;69.10;;;;;;5120683;28;20186;-84
2023/05/29 09:36:44;;;;;;;3.45;1.30;;;25.90;68.20;;;;;;5103757;28;20232;-86
2023/05/29 09:39:14;;;;;;;1.50;1.13;;;25.90;68.30;;;;;;5105984;28;20193;-86
2023/05/29 09:41:48;;;;;;;2.33;1.40;;;25.90;66.70;;;;;;5118360;27;21523;-84
2023/05/29 09:44:17;;;;;;;2.05;1.45;;;25.90;67.10;;;;;;5128574;28;20559;-85
2023/05/29 09:46:50;;;;;;;3.90;1.27;;;25.90;66.80;;;;;;5112713;27;20197;-86
2023/05/29 09:49:24;;;;;;;1.77;1.40;;;25.90;66.90;;;;;;5117493;27;20196;-87
2023/05/29 09:51:55;;;;;;;2.70;1.30;;;26.00;65.40;;;;;;5123271;27;20193;-84
2023/05/29 09:54:24;;;;;;;2.65;1.20;;;26.00;63.30;;;;;;5107778;27;20204;-83
2023/05/29 09:56:55;;;;;;;2.20;1.30;;;26.00;62.80;;;;;;5102037;27;20208;-83
2023/05/29 09:59:25;;;;;;;2.40;1.40;;;26.00;61.60;;;;;;5117488;27;20181;-84
2023/05/29 10:02:04;;;;;;;2.40;1.35;;;26.00;61.90;;;;;;5101031;27;20200;-83
2023/05/29 10:04:33;;;;;;;5.22;1.25;;;26.10;63.80;;;;;;5108428;27;20675;-87
2023/05/29 10:07:09;;;;;;;3.75;2.22;;;26.20;63.80;;;;;;5111728;27;20664;-83
2023/05/29 10:09:43;;;;;;;4.10;2.00;;;26.30;64.00;;;;;;5094492;28;20204;-83
2023/05/29 10:12:14;;;;;;;2.20;1.50;;;26.40;63.80;;;;;;5104353;28;20197;-85
2023/05/29 10:14:44;;;;;;;1.80;1.05;;;26.50;62.40;;;;;;5107479;27;20193;-85
2023/05/29 10:17:15;;;;;;;4.30;1.50;;;26.60;63.60;;;;;;5117183;27;20225;-84
2023/05/29 10:19:47;;;;;;;2.67;1.20;;;26.60;63.00;;;;;;5104122;28;20276;-84
2023/05/29 10:22:19;;;;;;;5.10;1.70;;;26.70;63.60;;;;;;5109018;27;20208;-84
2023/05/29 10:24:51;;;;;;;2.38;1.30;;;26.70;63.30;;;;;;5115206;27;20242;-84
2023/05/29 10:27:21;;;;;;;3.15;1.88;;;26.80;63.60;;;;;;5100938;28;20216;-85
2023/05/29 10:29:55;;;;;;;1.77;1.30;;;26.90;63.50;;;;;;5113636;27;20213;-85
2023/05/29 10:32:48;;;;;;;3.88;1.80;;;26.90;62.30;;;;;;5113270;28;20268;-85
2023/05/29 10:35:20;;;;;;;3.08;1.05;;;26.90;62.90;;;;;;5109426;28;20194;-84
2023/05/29 10:37:55;;;;;;;3.75;1.27;;;26.90;62.00;;;;;;5114898;27;20215;-86
2023/05/29 10:40:25;;;;;;;4.70;1.58;;;26.90;62.50;;;;;;5128396;27;20187;-84
2023/05/29 10:42:58;;;;;;;2.50;1.33;;;26.80;61.50;;;;;;5108822;27;20280;-85
2023/05/29 10:45:52;;;;;;;2.10;1.38;;;26.90;62.10;;;;;;5103853;28;20193;-85
2023/05/29 10:48:43;;;;;;;3.20;1.55;;;26.90;62.80;;;;;;5110599;27;20662;-85
2023/05/29 10:51:33;;;;;;;2.60;1.30;;;26.90;63.10;;;;;;5109549;28;20200;-85
2023/05/29 10:54:08;;;;;;;4.53;1.40;;;26.90;61.90;;;;;;5125224;27;20189;-85
2023/05/29 10:56:37;;;;;;;4.50;1.45;;;26.80;61.50;;;;;;5120895;27;20197;-86
2023/05/29 10:59:09;;;;;;;2.53;1.40;;;26.80;62.20;;;;;;5105577;28;20228;-83
2023/05/29 11:01:40;;;;;;;4.35;1.20;;;26.90;62.50;;;;;;5117805;27;20276;-85
2023/05/29 11:04:36;;;;;;;1.85;1.23;;;26.90;62.10;;;;;;5119196;27;20201;-85
2023/05/29 11:07:09;;;;;;;2.55;1.55;;;26.90;60.60;;;;;;5105856;27;20196;-84
2023/05/29 11:09:39;;;;;;;4.10;1.27;;;27.00;61.40;;;;;;5111749;27;20193;-85
2023/05/29 11:12:25;;;;;;;3.05;1.67;;;27.10;61.40;;;;;;5112834;27;20254;-85
2023/05/29 11:15:04;;;;;;;4.78;1.13;;;27.20;61.70;;;;;;5111036;28;20203;-86
2023/05/29 11:17:46;;;;;;;3.92;1.30;;;27.20;61.30;;;;;;5117066;28;20189;-87
2023/05/29 11:20:29;;;;;;;6.30;1.40;;;27.30;60.90;;;;;;5110776;27;20555;-83
2023/05/29 11:23:08;;;;;;;2.28;1.30;;;27.40;60.70;;;;;;5112173;27;20225;-86
2023/05/29 11:25:38;;;;;;;2.45;1.40;;;27.40;61.20;;;;;;5106074;28;20226;-87
2023/05/29 11:28:10;;;;;;;1.92;1.50;;;27.50;60.40;;;;;;5118071;27;20197;-85
2023/05/29 11:33:42;;;;;;;3.85;1.45;;;27.50;60.20;;;;;;5144868;27;20618;-85
2023/05/29 11:36:12;;;;;;;3.42;1.48;;;27.50;60.10;;;;;;5136489;27;20191;-85
2023/05/29 11:38:40;;;;;;;2.38;1.42;;;27.40;59.80;;;;;;5133622;27;20704;-85
2023/05/29 11:41:10;;;;;;;2.22;1.38;;;27.40;59.60;;;;;;5131457;27;20247;-86
2023/05/29 11:43:39;;;;;;;3.00;1.20;;;27.40;59.40;;;;;;5131566;28;20200;-86
2023/05/29 11:46:20;;;;;;;1.73;1.00;;;27.50;60.20;;;;;;5118680;27;20184;-84
2023/05/29 11:48:50;;;;;;;2.28;1.33;;;27.50;60.00;;;;;;5133489;27;20235;-84
2023/05/29 11:51:18;;;;;;;2.42;1.20;;;27.60;60.70;;;;;;5129810;28;20197;-85
2023/05/29 11:53:49;;;;;;;2.35;1.40;;;27.70;60.60;;;;;;5125066;28;20203;-84
2023/05/29 11:56:17;;;;;;;2.90;2.10;;;27.80;60.40;;;;;;5135818;27;20188;-85
2023/05/29 11:58:48;;;;;;;1.95;1.13;;;27.70;60.90;;;;;;5131610;27;20193;-85
2023/05/29 12:01:18;;;;;;;1.48;0.90;;;27.70;60.60;;;;;;5129775;27;20184;-87
2023/05/29 12:03:47;;;;;;;3.78;1.35;;;27.60;59.90;;;;;;5135574;27;20197;-84
2023/05/29 12:06:17;;;;;;;2.70;1.17;;;27.60;59.80;;;;;;5131075;27;20193;-85
2023/05/29 12:08:45;;;;;;;2.85;1.17;;;27.70;59.70;;;;;;5131959;27;20197;-87
2023/05/29 12:11:24;;;;;;;5.13;1.83;;;27.80;59.80;;;;;;5135845;27;20258;-85
2023/05/29 12:13:57;;;;;;;2.85;1.35;;;27.90;59.50;;;;;;5132311;27;20216;-85
2023/05/29 12:16:26;;;;;;;2.47;1.33;;;27.90;59.30;;;;;;5128838;27;20193;-85
2023/05/29 12:18:55;;;;;;;3.33;1.73;;;27.90;59.40;;;;;;5119010;27;20573;-85
2023/05/29 12:21:25;;;;;;;2.20;1.30;;;27.80;58.60;;;;;;5130925;28;20600;-86
2023/05/29 12:23:54;;;;;;;2.10;1.05;;;27.90;59.00;;;;;;5133095;27;20647;-85
2023/05/29 12:26:41;;;;;;;1.65;1.33;;;28.00;59.40;;;;;;5112508;28;20189;-85
2023/05/29 12:29:09;;;;;;;2.05;1.10;;;28.10;59.40;;;;;;5116223;28;20615;-85
2023/05/29 12:31:39;;;;;;;2.42;1.10;;;28.20;59.60;;;;;;5127827;27;20233;-86
2023/05/29 12:34:10;;;;;;;3.08;1.25;;;28.30;59.30;;;;;;5129733;28;20545;-87
2023/05/29 12:36:41;;;;;;;2.17;0.95;;;28.40;58.00;;;;;;5127473;28;20279;-84
2023/05/29 12:39:10;;;;;;;1.25;0.90;;;28.50;58.90;;;;;;5128570;27;20200;-86
2023/05/29 12:41:40;;;;;;;2.05;1.08;;;28.60;58.50;;;;;;5130217;27;20192;-83
2023/05/29 12:44:09;;;;;;;1.88;1.10;;;28.70;58.00;;;;;;5117454;28;20211;-84
2023/05/29 12:46:39;;;;;;;2.92;0.98;;;28.80;57.70;;;;;;5116647;28;20177;-85
2023/05/29 12:49:15;;;;;;;2.05;1.08;;;28.90;57.50;;;;;;5111480;27;20280;-84
2023/05/29 12:51:46;;;;;;;2.33;1.27;;;28.90;57.30;;;;;;5118138;27;20189;-86
2023/05/29 12:54:16;;;;;;;2.00;1.30;;;28.80;57.30;;;;;;5109417;28;20577;-84
2023/05/29 12:56:46;;;;;;;1.85;1.50;;;28.80;57.20;;;;;;5115441;27;20643;-84
2023/05/29 12:59:15;;;;;;;4.88;1.65;;;28.80;57.30;;;;;;5115596;27;20186;-84
2023/05/29 13:01:46;;;;;;;4.55;2.20;;;28.80;56.90;;;;;;5105354;27;20648;-85
2023/05/29 13:04:15;;;;;;;3.35;0.98;;;28.80;56.80;;;;;;5119738;27;20193;-86
2023/05/29 13:06:45;;;;;;;2.28;1.45;;;28.80;56.60;;;;;;5111650;27;20219;-85